SBI2005 UIII-UNNT
Flight info
| Callsign | SBI2005 |
|---|---|
| Flight time | N/A |
| Altitude | 36000 |
| Route | BOGRA5D BOGRA A815 TUTEK M97 LIBZI R497 LONKA A822 LAPAK B151 KESED B926 NATIR NATIR1M |
| Aircraft | A21N/M-SDE2E3FGHIRWXY/LB1 |
Departure
| Time | 2026-05-08 07:59 |
|---|---|
| Airport | Irkutsk International Airport (UIII) |
Arrival
| Time | N/A |
|---|---|
| Airport | Novosibirsk Tolmachevo Airport (UNNT) |
| Time | Latitude | Longitude | Altitude | Speed | Heading |
|---|---|---|---|---|---|
| 2026-05-08 07:34 | 52.27103 | 104.36887 | 1680 ft | 0 kts | 197° |
| 2026-05-08 07:51 | 52.27100 | 104.36885 | 1680 ft | 2 kts | 197° |
| 2026-05-08 07:51 | 52.27072 | 104.36875 | 1680 ft | 4 kts | 176° |
| 2026-05-08 07:51 | 52.27042 | 104.36915 | 1680 ft | 7 kts | 120° |
| 2026-05-08 07:52 | 52.27019 | 104.37006 | 1680 ft | 9 kts | 110° |
| 2026-05-08 07:52 | 52.26992 | 104.37122 | 1680 ft | 12 kts | 104° |
| 2026-05-08 07:52 | 52.26997 | 104.37206 | 1680 ft | 1 kts | 68° |
| 2026-05-08 07:52 | 52.27004 | 104.37247 | 1680 ft | 6 kts | 88° |
| 2026-05-08 07:53 | 52.26984 | 104.37354 | 1680 ft | 13 kts | 112° |
| 2026-05-08 07:53 | 52.26940 | 104.37522 | 1680 ft | 19 kts | 113° |
| 2026-05-08 07:53 | 52.26879 | 104.37749 | 1680 ft | 24 kts | 113° |
| 2026-05-08 07:53 | 52.26805 | 104.38026 | 1680 ft | 28 kts | 113° |
| 2026-05-08 07:54 | 52.26727 | 104.38326 | 1680 ft | 29 kts | 114° |
| 2026-05-08 07:54 | 52.26641 | 104.38646 | 1680 ft | 32 kts | 113° |
| 2026-05-08 07:54 | 52.26551 | 104.38984 | 1680 ft | 32 kts | 113° |
| 2026-05-08 07:54 | 52.26461 | 104.39320 | 1680 ft | 32 kts | 113° |
| 2026-05-08 07:55 | 52.26373 | 104.39656 | 1680 ft | 32 kts | 112° |
| 2026-05-08 07:55 | 52.26284 | 104.39990 | 1680 ft | 32 kts | 115° |
| 2026-05-08 07:55 | 52.26196 | 104.40318 | 1680 ft | 31 kts | 113° |
| 2026-05-08 07:55 | 52.26112 | 104.40636 | 1680 ft | 29 kts | 113° |
| 2026-05-08 07:56 | 52.26038 | 104.40910 | 1680 ft | 21 kts | 113° |
| 2026-05-08 07:56 | 52.26006 | 104.41134 | 1680 ft | 18 kts | 62° |
| 2026-05-08 07:56 | 52.26048 | 104.41189 | 1680 ft | 0 kts | 28° |
| 2026-05-08 07:56 | 52.26049 | 104.41190 | 1680 ft | 0 kts | 28° |
| 2026-05-08 07:57 | 52.26080 | 104.41215 | 1680 ft | 9 kts | 25° |
| 2026-05-08 07:57 | 52.26143 | 104.41264 | 1680 ft | 10 kts | 24° |
| 2026-05-08 07:57 | 52.26215 | 104.41267 | 1680 ft | 11 kts | 330° |
| 2026-05-08 07:57 | 52.26258 | 104.41174 | 1680 ft | 0 kts | 296° |
| 2026-05-08 07:58 | 52.26354 | 104.40821 | 1680 ft | 70 kts | 292° |
| 2026-05-08 07:58 | 52.26638 | 104.39756 | 1680 ft | 132 kts | 294° |
| 2026-05-08 07:58 | 52.27040 | 104.38191 | 1946 ft | 155 kts | 292° |
| 2026-05-08 07:59 | 52.27465 | 104.36575 | 2477 ft | 158 kts | 295° |
| 2026-05-08 07:59 | 52.27905 | 104.34945 | 3082 ft | 160 kts | 295° |
| 2026-05-08 07:59 | 52.28355 | 104.33269 | 3566 ft | 170 kts | 295° |
| 2026-05-08 07:59 | 52.28843 | 104.31445 | 3862 ft | 181 kts | 295° |
| 2026-05-08 08:00 | 52.29419 | 104.29521 | 4097 ft | 195 kts | 307° |
| 2026-05-08 08:00 | 52.30519 | 104.28149 | 4304 ft | 213 kts | 338° |
| 2026-05-08 08:00 | 52.31955 | 104.27338 | 4689 ft | 227 kts | 340° |
| 2026-05-08 08:00 | 52.33502 | 104.26466 | 5038 ft | 244 kts | 340° |
| 2026-05-08 08:01 | 52.35150 | 104.25527 | 5491 ft | 256 kts | 339° |
| 2026-05-08 08:01 | 52.36821 | 104.24565 | 6217 ft | 257 kts | 339° |
| 2026-05-08 08:01 | 52.38514 | 104.23586 | 7023 ft | 258 kts | 339° |
| 2026-05-08 08:01 | 52.40198 | 104.22611 | 7866 ft | 260 kts | 339° |
| 2026-05-08 08:02 | 52.41891 | 104.21628 | 8699 ft | 263 kts | 339° |
| 2026-05-08 08:02 | 52.43615 | 104.20626 | 9549 ft | 265 kts | 339° |
| 2026-05-08 08:02 | 52.45341 | 104.19624 | 10383 ft | 267 kts | 339° |
| 2026-05-08 08:02 | 52.47132 | 104.18579 | 10871 ft | 280 kts | 339° |
| 2026-05-08 08:03 | 52.49009 | 104.17481 | 11171 ft | 297 kts | 339° |
| 2026-05-08 08:03 | 52.51004 | 104.16315 | 11574 ft | 309 kts | 339° |
| 2026-05-08 08:03 | 52.53020 | 104.15137 | 12192 ft | 313 kts | 339° |
| 2026-05-08 08:03 | 52.55068 | 104.13941 | 12851 ft | 316 kts | 339° |
| 2026-05-08 08:04 | 52.57166 | 104.12717 | 13460 ft | 320 kts | 339° |
| 2026-05-08 08:04 | 52.59255 | 104.11495 | 14056 ft | 324 kts | 339° |
| 2026-05-08 08:04 | 52.61385 | 104.10248 | 14663 ft | 328 kts | 339° |
| 2026-05-08 08:04 | 52.63537 | 104.08986 | 15275 ft | 330 kts | 339° |
| 2026-05-08 08:05 | 52.65707 | 104.07711 | 15871 ft | 334 kts | 339° |
| 2026-05-08 08:05 | 52.67897 | 104.06424 | 16453 ft | 337 kts | 339° |
| 2026-05-08 08:05 | 52.70108 | 104.05123 | 17018 ft | 339 kts | 339° |
| 2026-05-08 08:05 | 52.72312 | 104.03824 | 17571 ft | 342 kts | 339° |
| 2026-05-08 08:06 | 52.74589 | 104.02480 | 18116 ft | 345 kts | 339° |
| 2026-05-08 08:06 | 52.76856 | 104.01142 | 18644 ft | 349 kts | 339° |
| 2026-05-08 08:06 | 52.79138 | 103.99792 | 19165 ft | 352 kts | 339° |
| 2026-05-08 08:06 | 52.81432 | 103.98434 | 19687 ft | 355 kts | 339° |
| 2026-05-08 08:07 | 52.83779 | 103.97042 | 20207 ft | 358 kts | 339° |
| 2026-05-08 08:07 | 52.86097 | 103.95667 | 20700 ft | 361 kts | 339° |
| 2026-05-08 08:07 | 52.88495 | 103.94242 | 21214 ft | 364 kts | 339° |
| 2026-05-08 08:07 | 52.90858 | 103.92837 | 21690 ft | 367 kts | 339° |
| 2026-05-08 08:08 | 52.93286 | 103.91392 | 22159 ft | 371 kts | 339° |
| 2026-05-08 08:08 | 52.95712 | 103.89948 | 22617 ft | 374 kts | 339° |
| 2026-05-08 08:08 | 52.98153 | 103.88492 | 23069 ft | 377 kts | 340° |
| 2026-05-08 08:08 | 53.00644 | 103.87005 | 23527 ft | 380 kts | 340° |
| 2026-05-08 08:09 | 53.03139 | 103.85514 | 23977 ft | 383 kts | 340° |
| 2026-05-08 08:09 | 53.05640 | 103.84019 | 24415 ft | 386 kts | 340° |
| 2026-05-08 08:09 | 53.08161 | 103.82510 | 24849 ft | 388 kts | 340° |
| 2026-05-08 08:09 | 53.10700 | 103.80985 | 25284 ft | 391 kts | 340° |
| 2026-05-08 08:10 | 53.13270 | 103.79446 | 25705 ft | 393 kts | 339° |
| 2026-05-08 08:10 | 53.15799 | 103.77760 | 26120 ft | 394 kts | 336° |
| 2026-05-08 08:10 | 53.18282 | 103.75885 | 26525 ft | 396 kts | 335° |
| 2026-05-08 08:10 | 53.20786 | 103.73935 | 26909 ft | 399 kts | 335° |
| 2026-05-08 08:11 | 53.23296 | 103.71966 | 27267 ft | 401 kts | 335° |
| 2026-05-08 08:11 | 53.25836 | 103.69971 | 27639 ft | 403 kts | 335° |
| 2026-05-08 08:11 | 53.28375 | 103.67979 | 28006 ft | 405 kts | 335° |
| 2026-05-08 08:11 | 53.30930 | 103.65973 | 28348 ft | 407 kts | 335° |
| 2026-05-08 08:12 | 53.33496 | 103.63957 | 28677 ft | 410 kts | 335° |
| 2026-05-08 08:12 | 53.36063 | 103.61937 | 28997 ft | 412 kts | 335° |
| 2026-05-08 08:12 | 53.38661 | 103.59890 | 29312 ft | 414 kts | 335° |
| 2026-05-08 08:12 | 53.41224 | 103.57867 | 29616 ft | 416 kts | 335° |